sensor_id;sensor_type;location;lat;lon;timestamp;pressure;altitude;pressure_sealevel;temperature;humidity
41632;BME280;37452;51.938;4.624;2022-07-24T00:00:45;76597.84;;;-142.75;100.00
41632;BME280;37452;51.938;4.624;2022-07-24T00:03:10;76597.84;;;-142.75;100.00
41632;BME280;37452;51.938;4.624;2022-07-24T00:05:35;76593.91;;;-142.75;100.00
41632;BME280;37452;51.938;4.624;2022-07-24T00:08:01;76595.88;;;-142.75;100.00
41632;BME280;37452;51.938;4.624;2022-07-24T00:10:26;76589.97;;;-142.75;100.00
41632;BME280;37452;51.938;4.624;2022-07-24T00:12:51;76597.84;;;-142.75;100.00
41632;BME280;37452;51.938;4.624;2022-07-24T00:15:17;76597.84;;;-142.75;100.00
41632;BME280;37452;51.938;4.624;2022-07-24T00:17:42;76591.94;;;-142.75;100.00
41632;BME280;37452;51.938;4.624;2022-07-24T00:20:08;76593.91;;;-142.75;100.00
41632;BME280;37452;51.938;4.624;2022-07-24T00:22:33;76588.00;;;-142.75;100.00
41632;BME280;37452;51.938;4.624;2022-07-24T00:24:58;76595.88;;;-142.75;100.00
41632;BME280;37452;51.938;4.624;2022-07-24T00:27:24;76601.78;;;-142.75;100.00
41632;BME280;37452;51.938;4.624;2022-07-24T00:29:49;76605.72;;;-142.75;100.00
41632;BME280;37452;51.938;4.624;2022-07-24T00:32:14;76613.59;;;-142.75;100.00
41632;BME280;37452;51.938;4.624;2022-07-24T00:34:39;76611.63;;;-142.75;100.00
41632;BME280;37452;51.938;4.624;2022-07-24T00:37:04;76609.66;;;-142.75;100.00
41632;BME280;37452;51.938;4.624;2022-07-24T00:39:30;76617.53;;;-142.75;100.00
41632;BME280;37452;51.938;4.624;2022-07-24T00:41:55;76617.53;;;-142.75;100.00
41632;BME280;37452;51.938;4.624;2022-07-24T00:44:21;76613.59;;;-142.75;100.00
41632;BME280;37452;51.938;4.624;2022-07-24T00:46:46;76621.47;;;-142.75;100.00
41632;BME280;37452;51.938;4.624;2022-07-24T00:49:13;76621.47;;;-142.75;100.00
41632;BME280;37452;51.938;4.624;2022-07-24T00:51:39;76617.53;;;-142.75;100.00
41632;BME280;37452;51.938;4.624;2022-07-24T00:54:05;76617.53;;;-142.75;100.00
41632;BME280;37452;51.938;4.624;2022-07-24T00:56:31;76621.47;;;-142.75;100.00
41632;BME280;37452;51.938;4.624;2022-07-24T00:58:56;76619.50;;;-142.75;100.00
41632;BME280;37452;51.938;4.624;2022-07-24T01:01:22;76625.41;;;-142.75;100.00
41632;BME280;37452;51.938;4.624;2022-07-24T01:03:47;76625.41;;;-142.75;100.00
41632;BME280;37452;51.938;4.624;2022-07-24T01:06:13;76625.41;;;-142.75;100.00
41632;BME280;37452;51.938;4.624;2022-07-24T01:08:38;76623.44;;;-142.75;100.00
41632;BME280;37452;51.938;4.624;2022-07-24T01:11:03;76621.47;;;-142.75;100.00
41632;BME280;37452;51.938;4.624;2022-07-24T01:13:29;76621.47;;;-142.75;100.00
41632;BME280;37452;51.938;4.624;2022-07-24T01:15:54;76621.47;;;-142.75;100.00
41632;BME280;37452;51.938;4.624;2022-07-24T01:18:19;76625.41;;;-142.75;100.00
41632;BME280;37452;51.938;4.624;2022-07-24T01:20:45;76625.41;;;-142.75;100.00
41632;BME280;37452;51.938;4.624;2022-07-24T01:23:11;76623.44;;;-142.75;100.00
41632;BME280;37452;51.938;4.624;2022-07-24T01:25:36;76617.53;;;-142.75;100.00
41632;BME280;37452;51.938;4.624;2022-07-24T01:28:01;76617.53;;;-142.75;100.00
41632;BME280;37452;51.938;4.624;2022-07-24T01:30:27;76621.47;;;-142.75;100.00
41632;BME280;37452;51.938;4.624;2022-07-24T01:32:52;76621.47;;;-142.75;100.00
41632;BME280;37452;51.938;4.624;2022-07-24T01:35:17;76625.41;;;-142.75;100.00
41632;BME280;37452;51.938;4.624;2022-07-24T01:37:42;76627.38;;;-142.75;100.00
41632;BME280;37452;51.938;4.624;2022-07-24T01:40:08;76625.41;;;-142.75;100.00
41632;BME280;37452;51.938;4.624;2022-07-24T01:42:33;76627.38;;;-142.75;100.00
41632;BME280;37452;51.938;4.624;2022-07-24T01:44:58;76633.28;;;-142.75;100.00
41632;BME280;37452;51.938;4.624;2022-07-24T01:47:23;76629.34;;;-142.75;100.00
41632;BME280;37452;51.938;4.624;2022-07-24T01:49:48;76629.34;;;-142.75;100.00
41632;BME280;37452;51.938;4.624;2022-07-24T01:52:14;76627.38;;;-142.75;100.00
41632;BME280;37452;51.938;4.624;2022-07-24T01:54:39;76625.41;;;-142.75;100.00
41632;BME280;37452;51.938;4.624;2022-07-24T01:57:04;76625.41;;;-142.75;100.00
41632;BME280;37452;51.938;4.624;2022-07-24T01:59:29;76627.38;;;-142.75;100.00
41632;BME280;37452;51.938;4.624;2022-07-24T02:01:55;76633.28;;;-142.75;100.00
41632;BME280;37452;51.938;4.624;2022-07-24T02:04:20;76625.41;;;-142.75;100.00
41632;BME280;37452;51.938;4.624;2022-07-24T02:06:45;76619.50;;;-142.75;100.00
41632;BME280;37452;51.938;4.624;2022-07-24T02:09:10;76619.50;;;-142.75;100.00
41632;BME280;37452;51.938;4.624;2022-07-24T02:11:36;76623.44;;;-142.75;100.00
41632;BME280;37452;51.938;4.624;2022-07-24T02:14:01;76629.34;;;-142.75;100.00
41632;BME280;37452;51.938;4.624;2022-07-24T02:16:26;76637.22;;;-142.75;100.00
41632;BME280;37452;51.938;4.624;2022-07-24T02:18:52;76631.31;;;-142.75;100.00
41632;BME280;37452;51.938;4.624;2022-07-24T02:21:17;76635.25;;;-142.75;100.00
41632;BME280;37452;51.938;4.624;2022-07-24T02:23:43;76641.16;;;-142.75;100.00
41632;BME280;37452;51.938;4.624;2022-07-24T02:26:08;76641.16;;;-142.75;100.00
41632;BME280;37452;51.938;4.624;2022-07-24T02:28:33;76641.16;;;-142.75;100.00
41632;BME280;37452;51.938;4.624;2022-07-24T02:30:58;76645.09;;;-142.75;100.00
41632;BME280;37452;51.938;4.624;2022-07-24T02:33:23;76645.09;;;-142.75;100.00
41632;BME280;37452;51.938;4.624;2022-07-24T02:35:49;76643.13;;;-142.75;100.00
41632;BME280;37452;51.938;4.624;2022-07-24T02:38:14;76647.06;;;-142.75;100.00
41632;BME280;37452;51.938;4.624;2022-07-24T02:40:39;76643.13;;;-142.75;100.00
41632;BME280;37452;51.938;4.624;2022-07-24T02:43:04;76649.03;;;-142.75;100.00
41632;BME280;37452;51.938;4.624;2022-07-24T02:45:29;76647.06;;;-142.75;100.00
41632;BME280;37452;51.938;4.624;2022-07-24T02:47:56;76651.00;;;-142.75;100.00
41632;BME280;37452;51.938;4.624;2022-07-24T02:50:22;76649.03;;;-142.75;100.00
41632;BME280;37452;51.938;4.624;2022-07-24T02:52:48;76641.16;;;-142.75;100.00
41632;BME280;37452;51.938;4.624;2022-07-24T02:55:13;76649.03;;;-142.75;100.00
41632;BME280;37452;51.938;4.624;2022-07-24T02:57:39;76647.06;;;-142.75;100.00
41632;BME280;37452;51.938;4.624;2022-07-24T03:00:05;76651.00;;;-142.75;100.00
41632;BME280;37452;51.938;4.624;2022-07-24T03:02:32;76652.97;;;-142.75;100.00
41632;BME280;37452;51.938;4.624;2022-07-24T03:04:57;76652.97;;;-142.75;100.00
41632;BME280;37452;51.938;4.624;2022-07-24T03:07:22;76660.84;;;-142.75;100.00
41632;BME280;37452;51.938;4.624;2022-07-24T03:09:47;76654.94;;;-142.75;100.00
41632;BME280;37452;51.938;4.624;2022-07-24T03:12:12;76664.78;;;-142.75;100.00
41632;BME280;37452;51.938;4.624;2022-07-24T03:14:38;76658.88;;;-142.75;100.00
41632;BME280;37452;51.938;4.624;2022-07-24T03:17:03;76658.88;;;-142.75;100.00
41632;BME280;37452;51.938;4.624;2022-07-24T03:19:29;76654.94;;;-142.75;100.00
41632;BME280;37452;51.938;4.624;2022-07-24T03:21:54;76660.84;;;-142.75;100.00
41632;BME280;37452;51.938;4.624;2022-07-24T03:24:19;76662.81;;;-142.75;100.00
41632;BME280;37452;51.938;4.624;2022-07-24T03:26:44;76664.78;;;-142.75;100.00
41632;BME280;37452;51.938;4.624;2022-07-24T03:29:09;76666.75;;;-142.75;100.00
41632;BME280;37452;51.938;4.624;2022-07-24T03:31:35;76668.72;;;-142.75;100.00
41632;BME280;37452;51.938;4.624;2022-07-24T03:34:00;76676.59;;;-142.75;100.00
41632;BME280;37452;51.938;4.624;2022-07-24T03:36:26;76674.63;;;-142.75;100.00
41632;BME280;37452;51.938;4.624;2022-07-24T03:38:51;76678.56;;;-142.75;100.00
41632;BME280;37452;51.938;4.624;2022-07-24T03:41:16;76680.53;;;-142.75;100.00
41632;BME280;37452;51.938;4.624;2022-07-24T03:43:42;76686.44;;;-142.75;100.00
41632;BME280;37452;51.938;4.624;2022-07-24T03:46:07;76690.38;;;-142.75;100.00
41632;BME280;37452;51.938;4.624;2022-07-24T03:48:32;76690.38;;;-142.75;100.00
41632;BME280;37452;51.938;4.624;2022-07-24T03:50:57;76696.28;;;-142.75;100.00
41632;BME280;37452;51.938;4.624;2022-07-24T03:53:23;76694.31;;;-142.75;100.00
41632;BME280;37452;51.938;4.624;2022-07-24T03:55:48;76696.28;;;-142.75;100.00
41632;BME280;37452;51.938;4.624;2022-07-24T03:58:13;76696.28;;;-142.75;100.00
41632;BME280;37452;51.938;4.624;2022-07-24T04:00:38;76694.31;;;-142.75;100.00
41632;BME280;37452;51.938;4.624;2022-07-24T04:03:04;76704.16;;;-142.75;100.00
41632;BME280;37452;51.938;4.624;2022-07-24T04:05:29;76692.34;;;-142.75;100.00
41632;BME280;37452;51.938;4.624;2022-07-24T04:07:54;76698.25;;;-142.75;100.00
41632;BME280;37452;51.938;4.624;2022-07-24T04:10:20;76702.19;;;-142.75;100.00
41632;BME280;37452;51.938;4.624;2022-07-24T04:12:46;76710.06;;;-142.75;100.00
41632;BME280;37452;51.938;4.624;2022-07-24T04:15:11;76706.13;;;-142.75;100.00
41632;BME280;37452;51.938;4.624;2022-07-24T04:17:40;76704.16;;;-142.75;100.00
41632;BME280;37452;51.938;4.624;2022-07-24T04:20:05;76712.03;;;-142.75;100.00
41632;BME280;37452;51.938;4.624;2022-07-24T04:22:31;76702.19;;;-142.75;100.00
41632;BME280;37452;51.938;4.624;2022-07-24T04:24:56;76700.22;;;-142.75;100.00
41632;BME280;37452;51.938;4.624;2022-07-24T04:27:21;76704.16;;;-142.75;100.00
41632;BME280;37452;51.938;4.624;2022-07-24T04:29:46;76708.09;;;-142.75;100.00
41632;BME280;37452;51.938;4.624;2022-07-24T04:32:11;76710.06;;;-142.75;100.00
41632;BME280;37452;51.938;4.624;2022-07-24T04:34:37;76712.03;;;-142.75;100.00
41632;BME280;37452;51.938;4.624;2022-07-24T04:37:05;76719.91;;;-142.75;100.00
41632;BME280;37452;51.938;4.624;2022-07-24T04:39:30;76710.06;;;-142.75;100.00
41632;BME280;37452;51.938;4.624;2022-07-24T04:41:55;76719.91;;;-142.75;100.00
41632;BME280;37452;51.938;4.624;2022-07-24T04:44:20;76715.97;;;-142.75;100.00
41632;BME280;37452;51.938;4.624;2022-07-24T04:46:46;76717.94;;;-142.75;100.00
41632;BME280;37452;51.938;4.624;2022-07-24T04:49:11;76715.97;;;-142.75;100.00
41632;BME280;37452;51.938;4.624;2022-07-24T04:51:36;76706.13;;;-142.75;100.00
41632;BME280;37452;51.938;4.624;2022-07-24T04:54:01;76704.16;;;-142.75;100.00
41632;BME280;37452;51.938;4.624;2022-07-24T04:56:26;76704.16;;;-142.75;100.00
41632;BME280;37452;51.938;4.624;2022-07-24T04:58:56;76692.34;;;-142.75;100.00
41632;BME280;37452;51.938;4.624;2022-07-24T05:01:22;76696.28;;;-142.75;100.00
41632;BME280;37452;51.938;4.624;2022-07-24T05:03:47;76688.41;;;-142.75;100.00
41632;BME280;37452;51.938;4.624;2022-07-24T05:06:12;76678.56;;;-142.75;100.00
41632;BME280;37452;51.938;4.624;2022-07-24T05:08:37;76668.72;;;-142.75;100.00
41632;BME280;37452;51.938;4.624;2022-07-24T05:11:02;76660.84;;;-142.75;100.00
41632;BME280;37452;51.938;4.624;2022-07-24T05:13:28;76643.13;;;-142.75;100.00
41632;BME280;37452;51.938;4.624;2022-07-24T05:15:53;76651.00;;;-142.75;100.00
41632;BME280;37452;51.938;4.624;2022-07-24T05:18:20;76637.22;;;-142.75;100.00
41632;BME280;37452;51.938;4.624;2022-07-24T05:20:45;76633.28;;;-142.75;100.00
41632;BME280;37452;51.938;4.624;2022-07-24T05:23:10;76621.47;;;-142.75;100.00
41632;BME280;37452;51.938;4.624;2022-07-24T05:25:35;76603.75;;;-142.75;100.00
41632;BME280;37452;51.938;4.624;2022-07-24T05:28:00;76586.03;;;-142.75;100.00
41632;BME280;37452;51.938;4.624;2022-07-24T05:30:26;76570.28;;;-142.75;100.00
41632;BME280;37452;51.938;4.624;2022-07-24T05:32:51;76558.47;;;-142.75;100.00
41632;BME280;37452;51.938;4.624;2022-07-24T05:35:16;76552.56;;;-142.75;100.00
41632;BME280;37452;51.938;4.624;2022-07-24T05:37:41;76546.66;;;-142.75;100.00
41632;BME280;37452;51.938;4.624;2022-07-24T05:40:06;76534.84;;;-142.75;100.00
41632;BME280;37452;51.938;4.624;2022-07-24T05:42:32;76532.88;;;-142.75;100.00
41632;BME280;37452;51.938;4.624;2022-07-24T05:44:57;76511.25;;;-142.75;100.00
41632;BME280;37452;51.938;4.624;2022-07-24T05:47:22;76515.19;;;-142.75;100.00
41632;BME280;37452;51.938;4.624;2022-07-24T05:49:47;76503.38;;;-142.75;100.00
41632;BME280;37452;51.938;4.624;2022-07-24T05:52:13;76501.41;;;-142.75;100.00
41632;BME280;37452;51.938;4.624;2022-07-24T05:54:38;76475.81;;;-142.75;100.00
41632;BME280;37452;51.938;4.624;2022-07-24T05:57:03;76458.09;;;-142.75;100.00
41632;BME280;37452;51.938;4.624;2022-07-24T05:59:28;76436.44;;;-142.75;100.00
41632;BME280;37452;51.938;4.624;2022-07-24T06:01:54;76424.63;;;-142.75;100.00
41632;BME280;37452;51.938;4.624;2022-07-24T06:04:19;76408.88;;;-142.75;100.00
41632;BME280;37452;51.938;4.624;2022-07-24T06:06:44;76385.25;;;-142.75;100.00
41632;BME280;37452;51.938;4.624;2022-07-24T06:09:09;76389.19;;;-142.75;100.00
41632;BME280;37452;51.938;4.624;2022-07-24T06:11:34;76401.00;;;-142.75;100.00
41632;BME280;37452;51.938;4.624;2022-07-24T06:14:00;76401.00;;;-142.75;100.00
41632;BME280;37452;51.938;4.624;2022-07-24T06:16:25;76408.88;;;-142.75;100.00
41632;BME280;37452;51.938;4.624;2022-07-24T06:18:50;76401.00;;;-142.75;100.00
41632;BME280;37452;51.938;4.624;2022-07-24T06:21:15;76379.34;;;-142.75;100.00
41632;BME280;37452;51.938;4.624;2022-07-24T06:23:41;76361.63;;;-142.75;100.00
41632;BME280;37452;51.938;4.624;2022-07-24T06:26:06;76343.94;;;-142.75;100.00
41632;BME280;37452;51.938;4.624;2022-07-24T06:28:31;76334.09;;;-142.75;100.00
41632;BME280;37452;51.938;4.624;2022-07-24T06:30:56;76298.66;;;-142.75;100.00
41632;BME280;37452;51.938;4.624;2022-07-24T06:33:22;76282.91;;;-142.75;100.00
41632;BME280;37452;51.938;4.624;2022-07-24T06:35:47;76278.97;;;-142.75;100.00
41632;BME280;37452;51.938;4.624;2022-07-24T06:38:12;76263.22;;;-142.75;100.00
41632;BME280;37452;51.938;4.624;2022-07-24T06:40:38;76259.28;;;-142.75;100.00
41632;BME280;37452;51.938;4.624;2022-07-24T06:43:03;76251.41;;;-142.75;100.00
41632;BME280;37452;51.938;4.624;2022-07-24T06:45:29;76219.91;;;-142.75;100.00
41632;BME280;37452;51.938;4.624;2022-07-24T06:47:57;76219.91;;;-142.75;100.00
41632;BME280;37452;51.938;4.624;2022-07-24T06:50:22;76204.16;;;-142.75;100.00
41632;BME280;37452;51.938;4.624;2022-07-24T06:52:47;76210.06;;;-142.75;100.00
41632;BME280;37452;51.938;4.624;2022-07-24T06:55:13;76219.91;;;-142.75;100.00
41632;BME280;37452;51.938;4.624;2022-07-24T06:57:38;76227.78;;;-142.75;100.00
41632;BME280;37452;51.938;4.624;2022-07-24T07:00:06;76229.75;;;-142.75;100.00
41632;BME280;37452;51.938;4.624;2022-07-24T07:02:33;76245.50;;;-142.75;100.00
41632;BME280;37452;51.938;4.624;2022-07-24T07:04:58;76215.97;;;-142.75;100.00
41632;BME280;37452;51.938;4.624;2022-07-24T07:07:23;76198.28;;;-142.75;100.00
41632;BME280;37452;51.938;4.624;2022-07-24T07:09:49;76145.13;;;-142.75;100.00
41632;BME280;37452;51.938;4.624;2022-07-24T07:12:14;76113.63;;;-142.75;100.00
41632;BME280;37452;51.938;4.624;2022-07-24T07:14:39;76080.16;;;-142.75;100.00
41632;BME280;37452;51.938;4.624;2022-07-24T07:17:05;76056.56;;;-142.75;100.00
41632;BME280;37452;51.938;4.624;2022-07-24T07:19:30;76046.72;;;-142.75;100.00
41632;BME280;37452;51.938;4.624;2022-07-24T07:21:55;76036.88;;;-142.75;100.00
41632;BME280;37452;51.938;4.624;2022-07-24T07:24:20;76030.97;;;-142.75;100.00
41632;BME280;37452;51.938;4.624;2022-07-24T07:26:46;76025.06;;;-142.75;100.00
41632;BME280;37452;51.938;4.624;2022-07-24T07:29:11;76050.66;;;-142.75;100.00
41632;BME280;37452;51.938;4.624;2022-07-24T07:31:36;76042.78;;;-142.75;100.00
41632;BME280;37452;51.938;4.624;2022-07-24T07:34:02;76003.41;;;-142.75;100.00
41632;BME280;37452;51.938;4.624;2022-07-24T07:36:27;76001.44;;;-142.75;100.00
41632;BME280;37452;51.938;4.624;2022-07-24T07:38:52;75958.16;;;-142.75;100.00
41632;BME280;37452;51.938;4.624;2022-07-24T07:41:17;75936.50;;;-142.75;100.00
41632;BME280;37452;51.938;4.624;2022-07-24T07:43:44;75944.38;;;-142.75;100.00
41632;BME280;37452;51.938;4.624;2022-07-24T07:46:09;75934.53;;;-142.75;100.00
41632;BME280;37452;51.938;4.624;2022-07-24T07:48:35;75928.63;;;-142.75;100.00
41632;BME280;37452;51.938;4.624;2022-07-24T07:51:00;75958.16;;;-142.75;100.00
41632;BME280;37452;51.938;4.624;2022-07-24T07:53:25;75977.81;;;-142.75;100.00
41632;BME280;37452;51.938;4.624;2022-07-24T07:55:50;75964.03;;;-142.75;100.00
41632;BME280;37452;51.938;4.624;2022-07-24T07:58:18;75962.09;;;-142.75;100.00
41632;BME280;37452;51.938;4.624;2022-07-24T08:00:43;75969.94;;;-142.75;100.00
41632;BME280;37452;51.938;4.624;2022-07-24T08:03:08;75971.91;;;-142.75;100.00
41632;BME280;37452;51.938;4.624;2022-07-24T08:05:33;76013.25;;;-142.75;100.00
41632;BME280;37452;51.938;4.624;2022-07-24T08:07:59;75997.50;;;-142.75;100.00
41632;BME280;37452;51.938;4.624;2022-07-24T08:10:24;76009.31;;;-142.75;100.00
41632;BME280;37452;51.938;4.624;2022-07-24T08:12:49;75975.84;;;-142.75;100.00
41632;BME280;37452;51.938;4.624;2022-07-24T08:15:14;75975.84;;;-142.75;100.00
41632;BME280;37452;51.938;4.624;2022-07-24T08:17:39;75987.66;;;-142.75;100.00
41632;BME280;37452;51.938;4.624;2022-07-24T08:20:05;75944.38;;;-142.75;100.00
41632;BME280;37452;51.938;4.624;2022-07-24T08:22:30;75901.06;;;-142.75;100.00
41632;BME280;37452;51.938;4.624;2022-07-24T08:24:55;75857.78;;;-142.75;100.00
41632;BME280;37452;51.938;4.624;2022-07-24T08:27:21;75857.78;;;-142.75;100.00
41632;BME280;37452;51.938;4.624;2022-07-24T08:29:46;75844.00;;;-142.75;100.00
41632;BME280;37452;51.938;4.624;2022-07-24T08:32:11;75802.66;;;-142.75;100.00
41632;BME280;37452;51.938;4.624;2022-07-24T08:34:36;75802.66;;;-142.75;95.97
41632;BME280;37452;51.938;4.624;2022-07-24T08:37:01;75775.09;;;-142.75;100.00
41632;BME280;37452;51.938;4.624;2022-07-24T08:39:27;75761.34;;;-142.75;100.00
41632;BME280;37452;51.938;4.624;2022-07-24T08:41:52;75771.16;;;-142.75;95.39
41632;BME280;37452;51.938;4.624;2022-07-24T08:44:17;75779.03;;;-142.75;97.19
41632;BME280;37452;51.938;4.624;2022-07-24T08:46:42;75759.38;;;-142.75;96.56
41632;BME280;37452;51.938;4.624;2022-07-24T08:49:12;75753.47;;;-142.75;92.38
41632;BME280;37452;51.938;4.624;2022-07-24T08:51:38;75802.66;;;-142.75;91.99
41632;BME280;37452;51.938;4.624;2022-07-24T08:54:04;75818.41;;;-142.75;95.02
41632;BME280;37452;51.938;4.624;2022-07-24T08:56:29;75784.94;;;-142.75;91.37
41632;BME280;37452;51.938;4.624;2022-07-24T08:58:55;75810.53;;;-142.75;89.45
41632;BME280;37452;51.938;4.624;2022-07-24T09:01:20;75769.19;;;-142.75;94.57
41632;BME280;37452;51.938;4.624;2022-07-24T09:03:46;75731.81;;;-142.75;95.02
41632;BME280;37452;51.938;4.624;2022-07-24T09:06:12;75686.53;;;-142.75;88.54
41632;BME280;37452;51.938;4.624;2022-07-24T09:08:42;75664.91;;;-142.75;85.03
41632;BME280;37452;51.938;4.624;2022-07-24T09:11:08;75643.25;;;-142.75;88.72
41632;BME280;37452;51.938;4.624;2022-07-24T09:13:34;75657.03;;;-142.75;85.14
41632;BME280;37452;51.938;4.624;2022-07-24T09:16:19;75720.00;;;-142.75;84.32
41632;BME280;37452;51.938;4.624;2022-07-24T09:18:47;75723.94;;;-142.75;90.97
41632;BME280;37452;51.938;4.624;2022-07-24T09:21:14;75712.13;;;-142.75;90.81
41632;BME280;37452;51.938;4.624;2022-07-24T09:23:40;75692.44;;;-142.75;85.63
41632;BME280;37452;51.938;4.624;2022-07-24T09:26:05;75664.91;;;-142.75;88.74
41632;BME280;37452;51.938;4.624;2022-07-24T09:28:45;75694.41;;;-142.75;88.12
41632;BME280;37452;51.938;4.624;2022-07-24T09:31:10;75670.81;;;-142.75;86.68
41632;BME280;37452;51.938;4.624;2022-07-24T09:33:35;75635.38;;;-142.75;86.85
41632;BME280;37452;51.938;4.624;2022-07-24T09:36:01;75621.59;;;-142.75;85.03
41632;BME280;37452;51.938;4.624;2022-07-24T09:38:35;75629.47;;;-142.75;85.17
41632;BME280;37452;51.938;4.624;2022-07-24T09:41:00;75621.59;;;-142.75;89.22
41632;BME280;37452;51.938;4.624;2022-07-24T09:43:32;75641.28;;;-142.75;84.90
41632;BME280;37452;51.938;4.624;2022-07-24T09:48:29;75633.41;;;-142.75;84.06
41632;BME280;37452;51.938;4.624;2022-07-24T09:50:56;75607.81;;;-142.75;84.90
41632;BME280;37452;51.938;4.624;2022-07-24T09:53:23;75546.81;;;-142.75;87.39
41632;BME280;37452;51.938;4.624;2022-07-24T09:58:25;75479.91;;;-142.75;79.03
41632;BME280;37452;51.938;4.624;2022-07-24T10:00:54;75442.50;;;-142.75;79.05
41632;BME280;37452;51.938;4.624;2022-07-24T10:03:23;75436.59;;;-142.75;78.95
41632;BME280;37452;51.938;4.624;2022-07-24T10:05:48;75399.22;;;-142.75;75.56
41632;BME280;37452;51.938;4.624;2022-07-24T10:08:18;75353.97;;;-142.75;77.61
41632;BME280;37452;51.938;4.624;2022-07-24T10:10:44;75318.53;;;-142.75;76.01
41632;BME280;37452;51.938;4.624;2022-07-24T10:13:09;75318.53;;;-142.75;72.26
41632;BME280;37452;51.938;4.624;2022-07-24T10:15:35;75342.16;;;-142.75;71.86
41632;BME280;37452;51.938;4.624;2022-07-24T10:18:16;75416.94;;;-142.75;72.29
41632;BME280;37452;51.938;4.624;2022-07-24T10:20:43;75387.41;;;-142.75;74.08
41632;BME280;37452;51.938;4.624;2022-07-24T10:23:09;75405.13;;;-142.75;73.07
41632;BME280;37452;51.938;4.624;2022-07-24T10:25:53;75403.16;;;-142.75;78.00
41632;BME280;37452;51.938;4.624;2022-07-24T10:28:27;75365.75;;;-142.75;75.54
41632;BME280;37452;51.938;4.624;2022-07-24T10:30:55;75365.75;;;-142.75;72.14
41632;BME280;37452;51.938;4.624;2022-07-24T10:33:21;75350.03;;;-142.75;71.44
41632;BME280;37452;51.938;4.624;2022-07-24T10:35:46;75298.84;;;-142.75;72.64
41632;BME280;37452;51.938;4.624;2022-07-24T10:38:14;75318.53;;;-142.75;68.26
41632;BME280;37452;51.938;4.624;2022-07-24T10:40:45;75334.28;;;-142.75;71.33
41632;BME280;37452;51.938;4.624;2022-07-24T10:43:13;75322.47;;;-142.75;69.49
41632;BME280;37452;51.938;4.624;2022-07-24T10:53:21;75342.16;;;-142.75;70.49
41632;BME280;37452;51.938;4.624;2022-07-24T10:55:47;75283.13;;;-142.75;76.33
41632;BME280;37452;51.938;4.624;2022-07-24T10:58:13;75243.75;;;-142.75;71.87
41632;BME280;37452;51.938;4.624;2022-07-24T11:00:49;75239.81;;;-142.75;70.71
41632;BME280;37452;51.938;4.624;2022-07-24T11:11:05;75255.56;;;-142.75;71.37
41632;BME280;37452;51.938;4.624;2022-07-24T11:18:37;75220.16;;;-142.75;68.72
41632;BME280;37452;51.938;4.624;2022-07-24T11:21:02;75155.22;;;-142.75;68.12
41632;BME280;37452;51.938;4.624;2022-07-24T11:23:27;75216.22;;;-142.75;67.07
41632;BME280;37452;51.938;4.624;2022-07-24T11:28:36;75180.78;;;-142.75;67.01
41632;BME280;37452;51.938;4.624;2022-07-24T11:31:02;75168.97;;;-142.75;68.40
41632;BME280;37452;51.938;4.624;2022-07-24T11:33:28;75172.91;;;-142.75;68.12
41632;BME280;37452;51.938;4.624;2022-07-24T11:35:54;75239.81;;;-142.75;67.49
41632;BME280;37452;51.938;4.624;2022-07-24T11:38:19;75192.59;;;-142.75;72.02
41632;BME280;37452;51.938;4.624;2022-07-24T11:40:52;75226.06;;;-142.75;68.82
41632;BME280;37452;51.938;4.624;2022-07-24T11:43:28;75235.88;;;-142.75;70.67
41632;BME280;37452;51.938;4.624;2022-07-24T11:45:54;75237.84;;;-142.75;69.56
41632;BME280;37452;51.938;4.624;2022-07-24T11:48:19;75231.94;;;-142.75;69.10
41632;BME280;37452;51.938;4.624;2022-07-24T11:50:45;75259.50;;;-142.75;69.44
41632;BME280;37452;51.938;4.624;2022-07-24T11:53:10;75237.84;;;-142.75;70.47
41632;BME280;37452;51.938;4.624;2022-07-24T11:55:35;75180.78;;;-142.75;71.77
41632;BME280;37452;51.938;4.624;2022-07-24T11:58:02;75115.84;;;-142.75;68.95
41632;BME280;37452;51.938;4.624;2022-07-24T12:00:27;75125.69;;;-142.75;68.30
41632;BME280;37452;51.938;4.624;2022-07-24T12:02:53;75078.47;;;-142.75;68.44
41632;BME280;37452;51.938;4.624;2022-07-24T12:05:26;75107.97;;;-142.75;68.01
41632;BME280;37452;51.938;4.624;2022-07-24T12:07:52;75129.63;;;-142.75;67.07
41632;BME280;37452;51.938;4.624;2022-07-24T12:10:20;75098.16;;;-142.75;70.96
41632;BME280;37452;51.938;4.624;2022-07-24T12:12:47;75125.69;;;-142.75;66.97
41632;BME280;37452;51.938;4.624;2022-07-24T12:15:14;75167.00;;;-142.75;68.62
41632;BME280;37452;51.938;4.624;2022-07-24T12:17:58;75139.47;;;-142.75;68.44
41632;BME280;37452;51.938;4.624;2022-07-24T12:20:25;75100.09;;;-142.75;68.26
41632;BME280;37452;51.938;4.624;2022-07-24T12:22:51;75072.56;;;-142.75;69.35
41632;BME280;37452;51.938;4.624;2022-07-24T12:25:16;75080.44;;;-142.75;67.44
41632;BME280;37452;51.938;4.624;2022-07-24T12:27:42;75113.88;;;-142.75;66.12
41632;BME280;37452;51.938;4.624;2022-07-24T12:30:27;75074.53;;;-142.75;69.17
41632;BME280;37452;51.938;4.624;2022-07-24T12:32:57;75098.16;;;-142.75;66.70
41632;BME280;37452;51.938;4.624;2022-07-24T12:35:23;75094.22;;;-142.75;67.06
41632;BME280;37452;51.938;4.624;2022-07-24T12:37:49;75092.25;;;-142.75;68.73
41632;BME280;37452;51.938;4.624;2022-07-24T12:40:25;75070.59;;;-142.75;67.07
41632;BME280;37452;51.938;4.624;2022-07-24T12:42:57;75023.38;;;-142.75;69.05
41632;BME280;37452;51.938;4.624;2022-07-24T12:45:23;75007.63;;;-142.75;66.17
41632;BME280;37452;51.938;4.624;2022-07-24T12:50:32;74984.00;;;-142.75;66.20
41632;BME280;37452;51.938;4.624;2022-07-24T12:53:04;75011.56;;;-142.75;66.88
41632;BME280;37452;51.938;4.624;2022-07-24T12:55:30;75066.66;;;-142.75;67.11
41632;BME280;37452;51.938;4.624;2022-07-24T12:58:02;75147.34;;;-142.75;68.76